sensor_id;sensor_type;location;lat;lon;timestamp;P1;durP1;ratioP1;P2;durP2;ratioP2
4122;SDS011;2075;51.062;6.920;2023-04-29T00:10:06;11.67;;;7.20;;
4122;SDS011;2075;51.062;6.920;2023-04-29T00:17:36;8.13;;;5.97;;
4122;SDS011;2075;51.062;6.920;2023-04-29T00:21:05;7.20;;;5.57;;
4122;SDS011;2075;51.062;6.920;2023-04-29T00:24:29;7.03;;;5.47;;
4122;SDS011;2075;51.062;6.920;2023-04-29T00:27:45;6.77;;;5.20;;
4122;SDS011;2075;51.062;6.920;2023-04-29T00:31:04;7.87;;;6.20;;
4122;SDS011;2075;51.062;6.920;2023-04-29T00:33:53;8.83;;;6.30;;
4122;SDS011;2075;51.062;6.920;2023-04-29T00:36:51;10.33;;;6.70;;
4122;SDS011;2075;51.062;6.920;2023-04-29T00:39:57;12.07;;;8.03;;
4122;SDS011;2075;51.062;6.920;2023-04-29T00:42:59;20.77;;;11.63;;
4122;SDS011;2075;51.062;6.920;2023-04-29T00:45:48;18.97;;;12.60;;
4122;SDS011;2075;51.062;6.920;2023-04-29T00:48:59;23.53;;;13.77;;
4122;SDS011;2075;51.062;6.920;2023-04-29T00:52:44;21.00;;;13.27;;
4122;SDS011;2075;51.062;6.920;2023-04-29T00:55:36;24.23;;;14.40;;
4122;SDS011;2075;51.062;6.920;2023-04-29T01:03:40;26.80;;;14.10;;
4122;SDS011;2075;51.062;6.920;2023-04-29T01:37:54;54.77;;;25.97;;
4122;SDS011;2075;51.062;6.920;2023-04-29T01:40:58;55.90;;;26.27;;
4122;SDS011;2075;51.062;6.920;2023-04-29T01:44:54;55.90;;;28.30;;
4122;SDS011;2075;51.062;6.920;2023-04-29T01:49:19;56.90;;;28.87;;
4122;SDS011;2075;51.062;6.920;2023-04-29T02:08:47;71.67;;;30.23;;
4122;SDS011;2075;51.062;6.920;2023-04-29T02:11:01;66.40;;;31.97;;
4122;SDS011;2075;51.062;6.920;2023-04-29T02:17:01;69.03;;;29.83;;
4122;SDS011;2075;51.062;6.920;2023-04-29T02:18:55;69.17;;;30.87;;
4122;SDS011;2075;51.062;6.920;2023-04-29T02:22:27;72.03;;;31.07;;
4122;SDS011;2075;51.062;6.920;2023-04-29T02:25:25;75.57;;;32.30;;
4122;SDS011;2075;51.062;6.920;2023-04-29T02:43:46;84.50;;;35.10;;
4122;SDS011;2075;51.062;6.920;2023-04-29T02:46:46;70.00;;;33.27;;
4122;SDS011;2075;51.062;6.920;2023-04-29T03:00:05;83.80;;;35.90;;
4122;SDS011;2075;51.062;6.920;2023-04-29T03:03:03;81.93;;;34.60;;
4122;SDS011;2075;51.062;6.920;2023-04-29T03:05:54;82.93;;;32.73;;
4122;SDS011;2075;51.062;6.920;2023-04-29T03:09:09;89.50;;;33.47;;
4122;SDS011;2075;51.062;6.920;2023-04-29T03:16:23;107.20;;;35.97;;
4122;SDS011;2075;51.062;6.920;2023-04-29T03:28:29;69.50;;;28.10;;
4122;SDS011;2075;51.062;6.920;2023-04-29T03:30:57;68.33;;;26.77;;
4122;SDS011;2075;51.062;6.920;2023-04-29T03:33:46;69.57;;;28.10;;
4122;SDS011;2075;51.062;6.920;2023-04-29T03:36:31;65.87;;;27.57;;
4122;SDS011;2075;51.062;6.920;2023-04-29T03:39:20;75.50;;;28.97;;
4122;SDS011;2075;51.062;6.920;2023-04-29T03:42:05;70.70;;;27.40;;
4122;SDS011;2075;51.062;6.920;2023-04-29T03:45:03;67.00;;;25.83;;
4122;SDS011;2075;51.062;6.920;2023-04-29T03:47:49;74.00;;;27.57;;
4122;SDS011;2075;51.062;6.920;2023-04-29T03:50:37;74.10;;;28.50;;
4122;SDS011;2075;51.062;6.920;2023-04-29T03:53:23;77.13;;;28.57;;
4122;SDS011;2075;51.062;6.920;2023-04-29T03:56:09;74.37;;;26.50;;
4122;SDS011;2075;51.062;6.920;2023-04-29T03:58:55;73.40;;;29.57;;
4122;SDS011;2075;51.062;6.920;2023-04-29T04:01:43;78.30;;;29.73;;
4122;SDS011;2075;51.062;6.920;2023-04-29T04:04:29;70.87;;;28.37;;
4122;SDS011;2075;51.062;6.920;2023-04-29T04:07:17;62.80;;;27.80;;
4122;SDS011;2075;51.062;6.920;2023-04-29T04:10:25;67.13;;;26.37;;
4122;SDS011;2075;51.062;6.920;2023-04-29T04:13:12;78.67;;;28.17;;
4122;SDS011;2075;51.062;6.920;2023-04-29T04:16:00;64.93;;;25.10;;
4122;SDS011;2075;51.062;6.920;2023-04-29T04:18:48;64.50;;;26.97;;
4122;SDS011;2075;51.062;6.920;2023-04-29T04:21:33;64.27;;;26.53;;
4122;SDS011;2075;51.062;6.920;2023-04-29T04:29:51;69.93;;;27.27;;
4122;SDS011;2075;51.062;6.920;2023-04-29T04:32:42;64.83;;;25.47;;
4122;SDS011;2075;51.062;6.920;2023-04-29T04:35:30;60.77;;;26.37;;
4122;SDS011;2075;51.062;6.920;2023-04-29T04:38:16;70.57;;;28.87;;
4122;SDS011;2075;51.062;6.920;2023-04-29T04:41:04;63.30;;;25.27;;
4122;SDS011;2075;51.062;6.920;2023-04-29T04:43:53;65.07;;;26.00;;
4122;SDS011;2075;51.062;6.920;2023-04-29T04:47:03;60.93;;;25.70;;
4122;SDS011;2075;51.062;6.920;2023-04-29T04:50:08;59.50;;;23.97;;
4122;SDS011;2075;51.062;6.920;2023-04-29T04:52:55;60.23;;;24.10;;
4122;SDS011;2075;51.062;6.920;2023-04-29T04:56:01;59.83;;;24.93;;
4122;SDS011;2075;51.062;6.920;2023-04-29T04:58:48;49.50;;;22.20;;
4122;SDS011;2075;51.062;6.920;2023-04-29T05:01:34;62.07;;;25.07;;
4122;SDS011;2075;51.062;6.920;2023-04-29T05:04:24;51.10;;;22.93;;
4122;SDS011;2075;51.062;6.920;2023-04-29T05:07:11;53.93;;;21.40;;
4122;SDS011;2075;51.062;6.920;2023-04-29T05:10:34;44.40;;;21.53;;
4122;SDS011;2075;51.062;6.920;2023-04-29T05:13:21;41.07;;;19.33;;
4122;SDS011;2075;51.062;6.920;2023-04-29T05:16:08;38.40;;;18.73;;
4122;SDS011;2075;51.062;6.920;2023-04-29T05:18:58;39.57;;;19.60;;
4122;SDS011;2075;51.062;6.920;2023-04-29T05:21:50;41.90;;;20.90;;
4122;SDS011;2075;51.062;6.920;2023-04-29T05:24:35;40.43;;;18.57;;
4122;SDS011;2075;51.062;6.920;2023-04-29T05:27:22;41.20;;;18.53;;
4122;SDS011;2075;51.062;6.920;2023-04-29T05:30:08;47.87;;;19.87;;
4122;SDS011;2075;51.062;6.920;2023-04-29T05:32:54;41.23;;;18.53;;
4122;SDS011;2075;51.062;6.920;2023-04-29T05:35:40;47.63;;;18.90;;
4122;SDS011;2075;51.062;6.920;2023-04-29T05:38:27;38.70;;;18.57;;
4122;SDS011;2075;51.062;6.920;2023-04-29T05:41:24;35.80;;;17.70;;
4122;SDS011;2075;51.062;6.920;2023-04-29T05:44:39;33.10;;;16.50;;
4122;SDS011;2075;51.062;6.920;2023-04-29T05:47:24;34.03;;;16.00;;
4122;SDS011;2075;51.062;6.920;2023-04-29T05:50:10;32.80;;;16.53;;
4122;SDS011;2075;51.062;6.920;2023-04-29T05:52:56;31.30;;;15.90;;
4122;SDS011;2075;51.062;6.920;2023-04-29T05:55:48;34.40;;;17.03;;
4122;SDS011;2075;51.062;6.920;2023-04-29T05:58:39;34.70;;;16.60;;
4122;SDS011;2075;51.062;6.920;2023-04-29T06:01:25;30.33;;;15.80;;
4122;SDS011;2075;51.062;6.920;2023-04-29T06:04:11;28.00;;;15.40;;
4122;SDS011;2075;51.062;6.920;2023-04-29T06:07:19;30.23;;;15.27;;
4122;SDS011;2075;51.062;6.920;2023-04-29T06:10:10;33.20;;;16.73;;
4122;SDS011;2075;51.062;6.920;2023-04-29T06:13:00;36.40;;;17.60;;
4122;SDS011;2075;51.062;6.920;2023-04-29T06:15:45;31.57;;;17.00;;
4122;SDS011;2075;51.062;6.920;2023-04-29T06:18:31;40.47;;;19.77;;
4122;SDS011;2075;51.062;6.920;2023-04-29T06:21:17;29.50;;;16.37;;
4122;SDS011;2075;51.062;6.920;2023-04-29T06:24:04;35.67;;;18.83;;
4122;SDS011;2075;51.062;6.920;2023-04-29T06:26:54;33.30;;;17.27;;
4122;SDS011;2075;51.062;6.920;2023-04-29T06:29:42;29.13;;;16.07;;
4122;SDS011;2075;51.062;6.920;2023-04-29T06:32:28;29.80;;;17.07;;
4122;SDS011;2075;51.062;6.920;2023-04-29T06:35:13;32.63;;;17.50;;
4122;SDS011;2075;51.062;6.920;2023-04-29T06:38:19;27.37;;;16.13;;
4122;SDS011;2075;51.062;6.920;2023-04-29T06:41:10;35.67;;;17.47;;
4122;SDS011;2075;51.062;6.920;2023-04-29T06:44:28;31.10;;;17.43;;
4122;SDS011;2075;51.062;6.920;2023-04-29T06:47:34;31.97;;;17.57;;
4122;SDS011;2075;51.062;6.920;2023-04-29T06:50:47;33.37;;;17.13;;
4122;SDS011;2075;51.062;6.920;2023-04-29T06:53:33;29.47;;;17.40;;
4122;SDS011;2075;51.062;6.920;2023-04-29T06:56:19;35.30;;;17.13;;
4122;SDS011;2075;51.062;6.920;2023-04-29T06:59:04;32.10;;;18.30;;
4122;SDS011;2075;51.062;6.920;2023-04-29T07:01:52;32.10;;;18.07;;
4122;SDS011;2075;51.062;6.920;2023-04-29T07:04:39;30.53;;;16.83;;
4122;SDS011;2075;51.062;6.920;2023-04-29T07:07:24;34.30;;;19.67;;
4122;SDS011;2075;51.062;6.920;2023-04-29T07:10:10;31.37;;;18.60;;
4122;SDS011;2075;51.062;6.920;2023-04-29T07:12:55;32.07;;;18.70;;
4122;SDS011;2075;51.062;6.920;2023-04-29T07:15:43;24.97;;;16.33;;
4122;SDS011;2075;51.062;6.920;2023-04-29T07:18:28;31.50;;;17.80;;
4122;SDS011;2075;51.062;6.920;2023-04-29T07:21:15;28.10;;;16.73;;
4122;SDS011;2075;51.062;6.920;2023-04-29T07:24:00;34.37;;;19.07;;
4122;SDS011;2075;51.062;6.920;2023-04-29T07:26:47;31.57;;;18.03;;
4122;SDS011;2075;51.062;6.920;2023-04-29T07:29:34;39.40;;;22.27;;
4122;SDS011;2075;51.062;6.920;2023-04-29T07:32:20;32.13;;;18.23;;
4122;SDS011;2075;51.062;6.920;2023-04-29T07:35:06;33.03;;;17.33;;
4122;SDS011;2075;51.062;6.920;2023-04-29T07:37:54;27.97;;;17.13;;
4122;SDS011;2075;51.062;6.920;2023-04-29T07:40:40;23.90;;;15.50;;
4122;SDS011;2075;51.062;6.920;2023-04-29T07:43:26;28.23;;;16.60;;
4122;SDS011;2075;51.062;6.920;2023-04-29T07:46:12;25.80;;;15.20;;
4122;SDS011;2075;51.062;6.920;2023-04-29T07:48:57;27.80;;;15.83;;
4122;SDS011;2075;51.062;6.920;2023-04-29T07:51:43;24.20;;;15.33;;
4122;SDS011;2075;51.062;6.920;2023-04-29T07:54:30;26.53;;;15.23;;
4122;SDS011;2075;51.062;6.920;2023-04-29T07:57:15;27.10;;;14.87;;
4122;SDS011;2075;51.062;6.920;2023-04-29T08:00:00;30.30;;;17.17;;
4122;SDS011;2075;51.062;6.920;2023-04-29T08:02:49;29.80;;;16.40;;
4122;SDS011;2075;51.062;6.920;2023-04-29T08:05:35;22.63;;;14.63;;
4122;SDS011;2075;51.062;6.920;2023-04-29T08:08:21;23.77;;;14.47;;
4122;SDS011;2075;51.062;6.920;2023-04-29T08:11:15;21.47;;;13.53;;
4122;SDS011;2075;51.062;6.920;2023-04-29T08:14:01;26.40;;;13.83;;
4122;SDS011;2075;51.062;6.920;2023-04-29T08:16:46;26.60;;;14.47;;
4122;SDS011;2075;51.062;6.920;2023-04-29T08:19:32;22.87;;;13.90;;
4122;SDS011;2075;51.062;6.920;2023-04-29T08:22:18;21.83;;;13.10;;
4122;SDS011;2075;51.062;6.920;2023-04-29T08:25:03;23.10;;;12.70;;
4122;SDS011;2075;51.062;6.920;2023-04-29T08:27:52;24.60;;;14.03;;
4122;SDS011;2075;51.062;6.920;2023-04-29T08:30:41;19.37;;;14.20;;
4122;SDS011;2075;51.062;6.920;2023-04-29T08:33:30;23.67;;;15.45;;
4122;SDS011;2075;51.062;6.920;2023-04-29T08:36:16;20.90;;;14.47;;
4122;SDS011;2075;51.062;6.920;2023-04-29T08:39:03;24.50;;;14.40;;
4122;SDS011;2075;51.062;6.920;2023-04-29T08:41:51;22.90;;;14.93;;
4122;SDS011;2075;51.062;6.920;2023-04-29T08:44:40;22.80;;;13.90;;
4122;SDS011;2075;51.062;6.920;2023-04-29T08:47:29;21.07;;;13.43;;
4122;SDS011;2075;51.062;6.920;2023-04-29T08:50:15;22.85;;;14.38;;
4122;SDS011;2075;51.062;6.920;2023-04-29T08:53:01;21.67;;;13.00;;
4122;SDS011;2075;51.062;6.920;2023-04-29T08:55:47;21.30;;;14.23;;
4122;SDS011;2075;51.062;6.920;2023-04-29T08:58:33;27.60;;;12.20;;
4122;SDS011;2075;51.062;6.920;2023-04-29T09:01:27;24.53;;;14.10;;
4122;SDS011;2075;51.062;6.920;2023-04-29T09:04:15;24.83;;;14.93;;
4122;SDS011;2075;51.062;6.920;2023-04-29T09:07:09;26.27;;;14.70;;
4122;SDS011;2075;51.062;6.920;2023-04-29T09:09:56;75.23;;;44.80;;
4122;SDS011;2075;51.062;6.920;2023-04-29T09:12:42;29.40;;;16.93;;
4122;SDS011;2075;51.062;6.920;2023-04-29T09:15:30;27.90;;;17.23;;
4122;SDS011;2075;51.062;6.920;2023-04-29T09:21:29;28.13;;;15.77;;
4122;SDS011;2075;51.062;6.920;2023-04-29T09:24:16;28.23;;;17.33;;
4122;SDS011;2075;51.062;6.920;2023-04-29T09:27:10;27.57;;;16.50;;
4122;SDS011;2075;51.062;6.920;2023-04-29T09:30:10;24.73;;;16.53;;
4122;SDS011;2075;51.062;6.920;2023-04-29T09:33:03;33.97;;;20.27;;
4122;SDS011;2075;51.062;6.920;2023-04-29T09:35:51;33.20;;;19.43;;
4122;SDS011;2075;51.062;6.920;2023-04-29T09:38:37;27.37;;;17.60;;
4122;SDS011;2075;51.062;6.920;2023-04-29T09:41:38;27.57;;;18.07;;
4122;SDS011;2075;51.062;6.920;2023-04-29T09:44:25;37.17;;;20.00;;
4122;SDS011;2075;51.062;6.920;2023-04-29T09:47:12;44.97;;;24.37;;
4122;SDS011;2075;51.062;6.920;2023-04-29T09:50:09;44.60;;;23.30;;
4122;SDS011;2075;51.062;6.920;2023-04-29T09:52:57;45.73;;;24.40;;
4122;SDS011;2075;51.062;6.920;2023-04-29T09:55:56;48.13;;;24.90;;
4122;SDS011;2075;51.062;6.920;2023-04-29T09:58:43;36.87;;;20.67;;
4122;SDS011;2075;51.062;6.920;2023-04-29T10:01:29;33.23;;;19.93;;
4122;SDS011;2075;51.062;6.920;2023-04-29T10:04:16;32.50;;;19.00;;
4122;SDS011;2075;51.062;6.920;2023-04-29T10:07:04;48.93;;;22.87;;
4122;SDS011;2075;51.062;6.920;2023-04-29T10:09:52;59.03;;;26.97;;
4122;SDS011;2075;51.062;6.920;2023-04-29T10:12:39;55.35;;;29.70;;
4122;SDS011;2075;51.062;6.920;2023-04-29T10:18:08;71.47;;;36.50;;
4122;SDS011;2075;51.062;6.920;2023-04-29T10:20:59;74.93;;;38.53;;
4122;SDS011;2075;51.062;6.920;2023-04-29T10:23:47;76.30;;;38.77;;
4122;SDS011;2075;51.062;6.920;2023-04-29T10:26:34;87.53;;;40.27;;
4122;SDS011;2075;51.062;6.920;2023-04-29T10:29:22;86.40;;;42.00;;
4122;SDS011;2075;51.062;6.920;2023-04-29T10:32:11;95.77;;;44.87;;
4122;SDS011;2075;51.062;6.920;2023-04-29T10:34:59;112.60;;;48.80;;
4122;SDS011;2075;51.062;6.920;2023-04-29T10:37:47;109.03;;;50.17;;
4122;SDS011;2075;51.062;6.920;2023-04-29T10:40:35;104.53;;;50.03;;
4122;SDS011;2075;51.062;6.920;2023-04-29T10:43:31;103.07;;;48.10;;
4122;SDS011;2075;51.062;6.920;2023-04-29T10:46:17;114.93;;;51.07;;
4122;SDS011;2075;51.062;6.920;2023-04-29T10:49:04;86.60;;;41.80;;
4122;SDS011;2075;51.062;6.920;2023-04-29T10:51:51;95.63;;;48.60;;
4122;SDS011;2075;51.062;6.920;2023-04-29T10:55:00;106.47;;;47.70;;
4122;SDS011;2075;51.062;6.920;2023-04-29T10:57:47;96.53;;;45.67;;
4122;SDS011;2075;51.062;6.920;2023-04-29T11:00:34;96.50;;;46.93;;
4122;SDS011;2075;51.062;6.920;2023-04-29T11:06:40;81.80;;;43.00;;
4122;SDS011;2075;51.062;6.920;2023-04-29T11:09:27;100.27;;;45.47;;
4122;SDS011;2075;51.062;6.920;2023-04-29T11:12:17;98.27;;;47.00;;
4122;SDS011;2075;51.062;6.920;2023-04-29T11:15:05;94.50;;;46.93;;
4122;SDS011;2075;51.062;6.920;2023-04-29T11:17:58;90.47;;;44.30;;
4122;SDS011;2075;51.062;6.920;2023-04-29T11:23:58;74.67;;;39.00;;
4122;SDS011;2075;51.062;6.920;2023-04-29T11:26:44;71.33;;;36.63;;
4122;SDS011;2075;51.062;6.920;2023-04-29T11:29:31;68.30;;;35.27;;
4122;SDS011;2075;51.062;6.920;2023-04-29T11:32:19;69.33;;;36.00;;
4122;SDS011;2075;51.062;6.920;2023-04-29T11:35:10;52.17;;;27.07;;
4122;SDS011;2075;51.062;6.920;2023-04-29T11:37:57;51.47;;;26.00;;
4122;SDS011;2075;51.062;6.920;2023-04-29T11:40:49;46.13;;;25.10;;
4122;SDS011;2075;51.062;6.920;2023-04-29T11:43:35;46.63;;;26.93;;
4122;SDS011;2075;51.062;6.920;2023-04-29T11:46:22;50.20;;;26.07;;
4122;SDS011;2075;51.062;6.920;2023-04-29T11:49:08;44.50;;;25.40;;
4122;SDS011;2075;51.062;6.920;2023-04-29T11:51:55;45.03;;;23.67;;
4122;SDS011;2075;51.062;6.920;2023-04-29T11:54:40;46.80;;;24.77;;
4122;SDS011;2075;51.062;6.920;2023-04-29T11:57:26;43.27;;;23.80;;
4122;SDS011;2075;51.062;6.920;2023-04-29T12:00:12;41.50;;;24.40;;
4122;SDS011;2075;51.062;6.920;2023-04-29T12:02:59;39.60;;;23.50;;
4122;SDS011;2075;51.062;6.920;2023-04-29T12:05:45;41.67;;;24.40;;
4122;SDS011;2075;51.062;6.920;2023-04-29T12:08:33;45.27;;;24.40;;
4122;SDS011;2075;51.062;6.920;2023-04-29T12:11:18;45.47;;;24.57;;
4122;SDS011;2075;51.062;6.920;2023-04-29T12:14:04;47.00;;;24.60;;
4122;SDS011;2075;51.062;6.920;2023-04-29T12:16:49;46.63;;;26.10;;
4122;SDS011;2075;51.062;6.920;2023-04-29T12:19:36;42.97;;;22.30;;
4122;SDS011;2075;51.062;6.920;2023-04-29T12:22:29;44.53;;;23.10;;
4122;SDS011;2075;51.062;6.920;2023-04-29T12:25:16;43.70;;;24.67;;
4122;SDS011;2075;51.062;6.920;2023-04-29T12:28:03;39.37;;;21.87;;
4122;SDS011;2075;51.062;6.920;2023-04-29T12:30:49;36.33;;;21.83;;
4122;SDS011;2075;51.062;6.920;2023-04-29T12:33:36;39.93;;;21.30;;
4122;SDS011;2075;51.062;6.920;2023-04-29T12:36:22;36.33;;;22.27;;
4122;SDS011;2075;51.062;6.920;2023-04-29T12:39:09;39.20;;;22.60;;
4122;SDS011;2075;51.062;6.920;2023-04-29T12:41:57;33.47;;;20.67;;
4122;SDS011;2075;51.062;6.920;2023-04-29T12:44:44;34.33;;;20.50;;
4122;SDS011;2075;51.062;6.920;2023-04-29T12:47:30;36.17;;;21.97;;
4122;SDS011;2075;51.062;6.920;2023-04-29T12:50:17;37.43;;;21.40;;
4122;SDS011;2075;51.062;6.920;2023-04-29T12:53:03;35.83;;;21.63;;
4122;SDS011;2075;51.062;6.920;2023-04-29T12:55:50;37.33;;;22.10;;
4122;SDS011;2075;51.062;6.920;2023-04-29T12:58:38;38.83;;;23.47;;
4122;SDS011;2075;51.062;6.920;2023-04-29T13:01:23;37.90;;;22.60;;
4122;SDS011;2075;51.062;6.920;2023-04-29T13:04:09;39.10;;;23.95;;
4122;SDS011;2075;51.062;6.920;2023-04-29T13:06:54;35.05;;;23.85;;
4122;SDS011;2075;51.062;6.920;2023-04-29T13:09:43;33.20;;;23.53;;
4122;SDS011;2075;51.062;6.920;2023-04-29T13:12:28;36.73;;;21.77;;
4122;SDS011;2075;51.062;6.920;2023-04-29T13:15:15;31.30;;;21.33;;
4122;SDS011;2075;51.062;6.920;2023-04-29T13:18:01;33.45;;;21.73;;
4122;SDS011;2075;51.062;6.920;2023-04-29T13:20:46;33.37;;;20.93;;
4122;SDS011;2075;51.062;6.920;2023-04-29T13:23:31;33.40;;;19.93;;
4122;SDS011;2075;51.062;6.920;2023-04-29T13:26:16;35.03;;;22.80;;
4122;SDS011;2075;51.062;6.920;2023-04-29T13:29:02;29.70;;;20.70;;
4122;SDS011;2075;51.062;6.920;2023-04-29T13:31:49;33.83;;;19.33;;
4122;SDS011;2075;51.062;6.920;2023-04-29T13:34:34;27.77;;;19.33;;
4122;SDS011;2075;51.062;6.920;2023-04-29T13:37:20;32.20;;;20.30;;
4122;SDS011;2075;51.062;6.920;2023-04-29T13:40:05;32.80;;;21.30;;
4122;SDS011;2075;51.062;6.920;2023-04-29T13:42:51;31.00;;;20.40;;
4122;SDS011;2075;51.062;6.920;2023-04-29T13:45:36;33.17;;;22.17;;
4122;SDS011;2075;51.062;6.920;2023-04-29T13:48:23;30.63;;;21.60;;
4122;SDS011;2075;51.062;6.920;2023-04-29T13:51:09;35.87;;;21.30;;
4122;SDS011;2075;51.062;6.920;2023-04-29T13:53:54;33.93;;;20.47;;
4122;SDS011;2075;51.062;6.920;2023-04-29T13:56:40;31.60;;;19.73;;
4122;SDS011;2075;51.062;6.920;2023-04-29T13:59:25;27.57;;;18.70;;
4122;SDS011;2075;51.062;6.920;2023-04-29T14:02:11;29.70;;;20.70;;
4122;SDS011;2075;51.062;6.920;2023-04-29T14:04:58;33.57;;;19.27;;
4122;SDS011;2075;51.062;6.920;2023-04-29T14:07:44;29.53;;;18.67;;
4122;SDS011;2075;51.062;6.920;2023-04-29T14:10:29;34.47;;;17.93;;
4122;SDS011;2075;51.062;6.920;2023-04-29T14:13:15;30.90;;;19.23;;
4122;SDS011;2075;51.062;6.920;2023-04-29T14:16:00;29.63;;;19.87;;
4122;SDS011;2075;51.062;6.920;2023-04-29T14:18:49;29.67;;;20.60;;
4122;SDS011;2075;51.062;6.920;2023-04-29T14:21:36;35.30;;;22.77;;
4122;SDS011;2075;51.062;6.920;2023-04-29T14:24:21;36.20;;;22.27;;
4122;SDS011;2075;51.062;6.920;2023-04-29T14:27:07;32.33;;;21.00;;
4122;SDS011;2075;51.062;6.920;2023-04-29T14:29:52;31.23;;;21.90;;
4122;SDS011;2075;51.062;6.920;2023-04-29T14:32:38;32.67;;;20.30;;
4122;SDS011;2075;51.062;6.920;2023-04-29T14:35:23;34.27;;;21.47;;
4122;SDS011;2075;51.062;6.920;2023-04-29T14:38:10;30.80;;;20.47;;
4122;SDS011;2075;51.062;6.920;2023-04-29T14:40:55;29.73;;;20.90;;
4122;SDS011;2075;51.062;6.920;2023-04-29T14:43:41;32.10;;;21.27;;
4122;SDS011;2075;51.062;6.920;2023-04-29T14:46:26;32.13;;;20.87;;
4122;SDS011;2075;51.062;6.920;2023-04-29T14:49:12;31.80;;;21.17;;
4122;SDS011;2075;51.062;6.920;2023-04-29T14:51:57;26.53;;;20.90;;
4122;SDS011;2075;51.062;6.920;2023-04-29T14:54:44;29.80;;;21.63;;
4122;SDS011;2075;51.062;6.920;2023-04-29T14:57:29;26.40;;;19.70;;
4122;SDS011;2075;51.062;6.920;2023-04-29T15:00:15;27.33;;;19.93;;
4122;SDS011;2075;51.062;6.920;2023-04-29T15:03:00;41.90;;;26.13;;
4122;SDS011;2075;51.062;6.920;2023-04-29T15:05:47;30.67;;;19.83;;
4122;SDS011;2075;51.062;6.920;2023-04-29T15:08:33;32.87;;;21.70;;
4122;SDS011;2075;51.062;6.920;2023-04-29T15:11:20;29.00;;;20.27;;
4122;SDS011;2075;51.062;6.920;2023-04-29T15:14:05;31.53;;;20.10;;
4122;SDS011;2075;51.062;6.920;2023-04-29T15:16:51;30.63;;;20.93;;
4122;SDS011;2075;51.062;6.920;2023-04-29T15:19:36;37.73;;;22.57;;
4122;SDS011;2075;51.062;6.920;2023-04-29T15:22:22;28.93;;;21.87;;
4122;SDS011;2075;51.062;6.920;2023-04-29T15:25:07;29.30;;;21.00;;
4122;SDS011;2075;51.062;6.920;2023-04-29T15:27:54;29.63;;;19.10;;
4122;SDS011;2075;51.062;6.920;2023-04-29T15:30:41;29.73;;;21.53;;
4122;SDS011;2075;51.062;6.920;2023-04-29T15:33:27;34.60;;;21.60;;
4122;SDS011;2075;51.062;6.920;2023-04-29T15:36:12;37.53;;;23.57;;
4122;SDS011;2075;51.062;6.920;2023-04-29T15:38:59;37.03;;;22.93;;
4122;SDS011;2075;51.062;6.920;2023-04-29T15:41:44;31.90;;;23.00;;
4122;SDS011;2075;51.062;6.920;2023-04-29T15:44:32;30.10;;;22.47;;
4122;SDS011;2075;51.062;6.920;2023-04-29T15:47:18;35.20;;;23.05;;
4122;SDS011;2075;51.062;6.920;2023-04-29T15:50:04;31.67;;;22.33;;
4122;SDS011;2075;51.062;6.920;2023-04-29T15:52:52;43.33;;;23.87;;
4122;SDS011;2075;51.062;6.920;2023-04-29T15:55:41;30.93;;;21.60;;
4122;SDS011;2075;51.062;6.920;2023-04-29T15:58:27;35.97;;;23.47;;
4122;SDS011;2075;51.062;6.920;2023-04-29T16:01:15;41.17;;;23.90;;
4122;SDS011;2075;51.062;6.920;2023-04-29T16:04:00;35.47;;;22.23;;
4122;SDS011;2075;51.062;6.920;2023-04-29T16:06:45;30.33;;;22.70;;
4122;SDS011;2075;51.062;6.920;2023-04-29T16:09:31;31.80;;;23.60;;
4122;SDS011;2075;51.062;6.920;2023-04-29T16:12:17;40.83;;;23.20;;
4122;SDS011;2075;51.062;6.920;2023-04-29T16:15:04;34.50;;;23.27;;
4122;SDS011;2075;51.062;6.920;2023-04-29T16:17:52;31.47;;;21.70;;
4122;SDS011;2075;51.062;6.920;2023-04-29T16:20:41;32.30;;;21.67;;
4122;SDS011;2075;51.062;6.920;2023-04-29T16:23:27;32.57;;;20.70;;
4122;SDS011;2075;51.062;6.920;2023-04-29T16:26:13;29.70;;;20.67;;
4122;SDS011;2075;51.062;6.920;2023-04-29T16:28:58;32.17;;;22.40;;
4122;SDS011;2075;51.062;6.920;2023-04-29T16:31:43;30.77;;;19.90;;
4122;SDS011;2075;51.062;6.920;2023-04-29T16:34:30;29.57;;;20.13;;
4122;SDS011;2075;51.062;6.920;2023-04-29T16:37:16;27.40;;;19.20;;
4122;SDS011;2075;51.062;6.920;2023-04-29T16:40:01;28.80;;;19.77;;
4122;SDS011;2075;51.062;6.920;2023-04-29T16:42:46;25.83;;;18.13;;
4122;SDS011;2075;51.062;6.920;2023-04-29T16:45:32;25.57;;;18.23;;
4122;SDS011;2075;51.062;6.920;2023-04-29T16:48:17;21.33;;;17.53;;
4122;SDS011;2075;51.062;6.920;2023-04-29T16:51:04;26.20;;;19.03;;
4122;SDS011;2075;51.062;6.920;2023-04-29T16:53:50;24.63;;;17.03;;
4122;SDS011;2075;51.062;6.920;2023-04-29T16:56:36;25.90;;;18.23;;
4122;SDS011;2075;51.062;6.920;2023-04-29T16:59:21;33.83;;;20.23;;
4122;SDS011;2075;51.062;6.920;2023-04-29T17:02:06;31.80;;;20.73;;
4122;SDS011;2075;51.062;6.920;2023-04-29T17:04:53;30.60;;;21.70;;
4122;SDS011;2075;51.062;6.920;2023-04-29T17:07:39;25.63;;;18.73;;
4122;SDS011;2075;51.062;6.920;2023-04-29T17:10:25;33.63;;;20.00;;
4122;SDS011;2075;51.062;6.920;2023-04-29T17:13:10;26.67;;;19.13;;
4122;SDS011;2075;51.062;6.920;2023-04-29T17:15:55;24.80;;;18.30;;
4122;SDS011;2075;51.062;6.920;2023-04-29T17:18:41;31.57;;;19.20;;
4122;SDS011;2075;51.062;6.920;2023-04-29T17:21:26;27.07;;;18.10;;
4122;SDS011;2075;51.062;6.920;2023-04-29T17:24:14;23.20;;;18.27;;
4122;SDS011;2075;51.062;6.920;2023-04-29T17:27:00;24.33;;;17.67;;
4122;SDS011;2075;51.062;6.920;2023-04-29T17:29:46;26.50;;;17.13;;
4122;SDS011;2075;51.062;6.920;2023-04-29T17:32:31;23.37;;;17.70;;
4122;SDS011;2075;51.062;6.920;2023-04-29T17:35:21;24.63;;;15.80;;
4122;SDS011;2075;51.062;6.920;2023-04-29T17:38:07;22.97;;;17.53;;
4122;SDS011;2075;51.062;6.920;2023-04-29T17:40:56;20.07;;;14.43;;
4122;SDS011;2075;51.062;6.920;2023-04-29T17:43:42;24.13;;;16.57;;
4122;SDS011;2075;51.062;6.920;2023-04-29T17:46:27;26.47;;;16.03;;
4122;SDS011;2075;51.062;6.920;2023-04-29T17:49:13;26.90;;;15.33;;
4122;SDS011;2075;51.062;6.920;2023-04-29T17:51:58;19.13;;;14.10;;
4122;SDS011;2075;51.062;6.920;2023-04-29T17:54:46;21.33;;;14.60;;
4122;SDS011;2075;51.062;6.920;2023-04-29T17:57:33;25.20;;;16.50;;
4122;SDS011;2075;51.062;6.920;2023-04-29T18:00:19;18.20;;;14.27;;
4122;SDS011;2075;51.062;6.920;2023-04-29T18:03:05;20.90;;;14.17;;
4122;SDS011;2075;51.062;6.920;2023-04-29T18:05:51;23.87;;;16.43;;
4122;SDS011;2075;51.062;6.920;2023-04-29T18:08:36;25.53;;;15.77;;
4122;SDS011;2075;51.062;6.920;2023-04-29T18:11:22;21.27;;;14.93;;
4122;SDS011;2075;51.062;6.920;2023-04-29T18:14:09;21.90;;;15.73;;
4122;SDS011;2075;51.062;6.920;2023-04-29T18:16:54;23.23;;;15.00;;
4122;SDS011;2075;51.062;6.920;2023-04-29T18:19:41;19.80;;;14.87;;
4122;SDS011;2075;51.062;6.920;2023-04-29T18:22:26;22.57;;;15.70;;
4122;SDS011;2075;51.062;6.920;2023-04-29T18:25:12;22.07;;;15.20;;
4122;SDS011;2075;51.062;6.920;2023-04-29T18:27:58;23.13;;;15.57;;
4122;SDS011;2075;51.062;6.920;2023-04-29T18:33:27;21.57;;;15.33;;
4122;SDS011;2075;51.062;6.920;2023-04-29T18:36:16;26.70;;;15.50;;
4122;SDS011;2075;51.062;6.920;2023-04-29T18:39:03;19.10;;;15.93;;
4122;SDS011;2075;51.062;6.920;2023-04-29T18:41:49;27.70;;;16.07;;
4122;SDS011;2075;51.062;6.920;2023-04-29T18:44:34;27.43;;;16.23;;
4122;SDS011;2075;51.062;6.920;2023-04-29T18:47:20;23.77;;;17.10;;
4122;SDS011;2075;51.062;6.920;2023-04-29T18:50:07;30.30;;;17.37;;
4122;SDS011;2075;51.062;6.920;2023-04-29T18:52:52;21.97;;;16.50;;
4122;SDS011;2075;51.062;6.920;2023-04-29T18:55:37;25.33;;;17.33;;
4122;SDS011;2075;51.062;6.920;2023-04-29T18:58:23;23.47;;;16.00;;
4122;SDS011;2075;51.062;6.920;2023-04-29T19:01:09;28.70;;;17.90;;
4122;SDS011;2075;51.062;6.920;2023-04-29T19:03:55;26.47;;;17.40;;
4122;SDS011;2075;51.062;6.920;2023-04-29T19:06:42;26.43;;;17.13;;
4122;SDS011;2075;51.062;6.920;2023-04-29T19:09:27;28.40;;;17.63;;